sensor_id;sensor_type;location;lat;lon;timestamp;P1;durP1;ratioP1;P2;durP2;ratioP2
26824;SDS011;14402;48.178;11.566;2022-09-27T00:00:27;2.5;;;0.8;;
26824;SDS011;14402;48.178;11.566;2022-09-27T00:00:58;2.5;;;0.8;;
26824;SDS011;14402;48.178;11.566;2022-09-27T00:01:27;2.5;;;0.8;;
26824;SDS011;14402;48.178;11.566;2022-09-27T00:01:57;2.0;;;0.9;;
26824;SDS011;14402;48.178;11.566;2022-09-27T00:02:28;1.4;;;1.0;;
26824;SDS011;14402;48.178;11.566;2022-09-27T00:02:58;1.4;;;1.0;;
26824;SDS011;14402;48.178;11.566;2022-09-27T00:03:28;1.4;;;1.0;;
26824;SDS011;14402;48.178;11.566;2022-09-27T00:03:58;1.5;;;0.9;;
26824;SDS011;14402;48.178;11.566;2022-09-27T00:04:28;1.5;;;0.7;;
26824;SDS011;14402;48.178;11.566;2022-09-27T00:04:58;1.5;;;0.7;;
26824;SDS011;14402;48.178;11.566;2022-09-27T00:05:28;1.5;;;0.7;;
26824;SDS011;14402;48.178;11.566;2022-09-27T00:06:00;3.0;;;0.8;;
26824;SDS011;14402;48.178;11.566;2022-09-27T00:06:29;4.4;;;0.8;;
26824;SDS011;14402;48.178;11.566;2022-09-27T00:06:59;4.4;;;0.8;;
26824;SDS011;14402;48.178;11.566;2022-09-27T00:07:28;4.4;;;0.8;;
26824;SDS011;14402;48.178;11.566;2022-09-27T00:07:58;2.7;;;0.8;;
26824;SDS011;14402;48.178;11.566;2022-09-27T00:08:29;1.0;;;0.8;;
26824;SDS011;14402;48.178;11.566;2022-09-27T00:08:59;1.0;;;0.8;;
26824;SDS011;14402;48.178;11.566;2022-09-27T00:09:29;1.0;;;0.8;;
26824;SDS011;14402;48.178;11.566;2022-09-27T00:09:59;1.6;;;0.8;;
26824;SDS011;14402;48.178;11.566;2022-09-27T00:10:29;2.3;;;0.8;;
26824;SDS011;14402;48.178;11.566;2022-09-27T00:10:59;2.3;;;0.8;;
26824;SDS011;14402;48.178;11.566;2022-09-27T00:11:31;2.3;;;0.8;;
26824;SDS011;14402;48.178;11.566;2022-09-27T00:11:59;1.8;;;0.9;;
26824;SDS011;14402;48.178;11.566;2022-09-27T00:12:29;1.4;;;0.9;;
26824;SDS011;14402;48.178;11.566;2022-09-27T00:13:00;1.4;;;0.9;;
26824;SDS011;14402;48.178;11.566;2022-09-27T00:13:30;1.4;;;0.9;;
26824;SDS011;14402;48.178;11.566;2022-09-27T00:14:00;1.6;;;1.0;;
26824;SDS011;14402;48.178;11.566;2022-09-27T00:14:30;1.9;;;1.1;;
26824;SDS011;14402;48.178;11.566;2022-09-27T00:15:00;1.9;;;1.1;;
26824;SDS011;14402;48.178;11.566;2022-09-27T00:15:30;1.9;;;1.1;;
26824;SDS011;14402;48.178;11.566;2022-09-27T00:16:01;3.0;;;1.1;;
26824;SDS011;14402;48.178;11.566;2022-09-27T00:16:31;4.0;;;1.1;;
26824;SDS011;14402;48.178;11.566;2022-09-27T00:17:00;4.0;;;1.1;;
26824;SDS011;14402;48.178;11.566;2022-09-27T00:17:31;4.0;;;1.1;;
26824;SDS011;14402;48.178;11.566;2022-09-27T00:18:00;3.2;;;1.0;;
26824;SDS011;14402;48.178;11.566;2022-09-27T00:18:31;2.3;;;1.0;;
26824;SDS011;14402;48.178;11.566;2022-09-27T00:19:01;2.3;;;1.0;;
26824;SDS011;14402;48.178;11.566;2022-09-27T00:19:31;2.3;;;1.0;;
26824;SDS011;14402;48.178;11.566;2022-09-27T00:20:01;1.8;;;0.9;;
26824;SDS011;14402;48.178;11.566;2022-09-27T00:20:33;1.4;;;0.8;;
26824;SDS011;14402;48.178;11.566;2022-09-27T00:21:05;1.4;;;0.8;;
26824;SDS011;14402;48.178;11.566;2022-09-27T00:21:31;1.4;;;0.8;;
26824;SDS011;14402;48.178;11.566;2022-09-27T00:22:01;1.5;;;0.9;;
26824;SDS011;14402;48.178;11.566;2022-09-27T00:22:31;1.6;;;0.9;;
26824;SDS011;14402;48.178;11.566;2022-09-27T00:23:01;1.6;;;0.9;;
26824;SDS011;14402;48.178;11.566;2022-09-27T00:23:31;1.6;;;0.9;;
26824;SDS011;14402;48.178;11.566;2022-09-27T00:24:01;2.1;;;0.9;;
26824;SDS011;14402;48.178;11.566;2022-09-27T00:24:31;2.6;;;0.8;;
26824;SDS011;14402;48.178;11.566;2022-09-27T00:25:02;2.6;;;0.8;;
26824;SDS011;14402;48.178;11.566;2022-09-27T00:25:32;2.6;;;0.8;;
26824;SDS011;14402;48.178;11.566;2022-09-27T00:26:02;2.2;;;0.9;;
26824;SDS011;14402;48.178;11.566;2022-09-27T00:26:32;1.7;;;0.9;;
26824;SDS011;14402;48.178;11.566;2022-09-27T00:27:02;1.7;;;0.9;;
26824;SDS011;14402;48.178;11.566;2022-09-27T00:27:32;1.7;;;0.9;;
26824;SDS011;14402;48.178;11.566;2022-09-27T00:28:02;1.6;;;0.9;;
26824;SDS011;14402;48.178;11.566;2022-09-27T00:28:32;1.5;;;1.0;;
26824;SDS011;14402;48.178;11.566;2022-09-27T00:29:02;1.5;;;1.0;;
26824;SDS011;14402;48.178;11.566;2022-09-27T00:29:32;1.5;;;1.0;;
26824;SDS011;14402;48.178;11.566;2022-09-27T00:30:03;1.8;;;1.0;;
26824;SDS011;14402;48.178;11.566;2022-09-27T00:30:33;2.0;;;1.0;;
26824;SDS011;14402;48.178;11.566;2022-09-27T00:31:03;2.0;;;1.0;;
26824;SDS011;14402;48.178;11.566;2022-09-27T00:31:33;2.0;;;1.0;;
26824;SDS011;14402;48.178;11.566;2022-09-27T00:32:03;1.5;;;0.9;;
26824;SDS011;14402;48.178;11.566;2022-09-27T00:32:33;1.1;;;0.9;;
26824;SDS011;14402;48.178;11.566;2022-09-27T00:33:03;1.1;;;0.9;;
26824;SDS011;14402;48.178;11.566;2022-09-27T00:33:33;1.1;;;0.9;;
26824;SDS011;14402;48.178;11.566;2022-09-27T00:34:04;1.7;;;0.9;;
26824;SDS011;14402;48.178;11.566;2022-09-27T00:34:33;2.3;;;1.0;;
26824;SDS011;14402;48.178;11.566;2022-09-27T00:35:04;2.3;;;1.0;;
26824;SDS011;14402;48.178;11.566;2022-09-27T00:35:33;2.3;;;1.0;;
26824;SDS011;14402;48.178;11.566;2022-09-27T00:36:04;1.8;;;1.0;;
26824;SDS011;14402;48.178;11.566;2022-09-27T00:36:34;1.4;;;1.0;;
26824;SDS011;14402;48.178;11.566;2022-09-27T00:37:04;1.4;;;1.0;;
26824;SDS011;14402;48.178;11.566;2022-09-27T00:37:34;1.4;;;1.0;;
26824;SDS011;14402;48.178;11.566;2022-09-27T00:38:04;1.4;;;0.9;;
26824;SDS011;14402;48.178;11.566;2022-09-27T00:38:34;1.4;;;0.9;;
26824;SDS011;14402;48.178;11.566;2022-09-27T00:39:04;1.4;;;0.9;;
26824;SDS011;14402;48.178;11.566;2022-09-27T00:39:34;1.4;;;0.9;;
26824;SDS011;14402;48.178;11.566;2022-09-27T00:40:04;1.4;;;1.0;;
26824;SDS011;14402;48.178;11.566;2022-09-27T00:40:34;1.4;;;1.1;;
26824;SDS011;14402;48.178;11.566;2022-09-27T00:41:04;1.4;;;1.1;;
26824;SDS011;14402;48.178;11.566;2022-09-27T00:41:35;1.4;;;1.1;;
26824;SDS011;14402;48.178;11.566;2022-09-27T00:42:05;1.5;;;1.0;;
26824;SDS011;14402;48.178;11.566;2022-09-27T00:42:35;1.6;;;1.0;;
26824;SDS011;14402;48.178;11.566;2022-09-27T00:43:09;1.6;;;1.0;;
26824;SDS011;14402;48.178;11.566;2022-09-27T00:43:41;1.6;;;1.0;;
26824;SDS011;14402;48.178;11.566;2022-09-27T00:44:54;2.1;;;1.0;;
26824;SDS011;14402;48.178;11.566;2022-09-27T00:44:59;2.6;;;1.1;;
26824;SDS011;14402;48.178;11.566;2022-09-27T00:45:08;2.6;;;1.1;;
26824;SDS011;14402;48.178;11.566;2022-09-27T00:45:35;2.6;;;1.1;;
26824;SDS011;14402;48.178;11.566;2022-09-27T00:46:05;2.0;;;1.0;;
26824;SDS011;14402;48.178;11.566;2022-09-27T00:46:36;1.4;;;1.0;;
26824;SDS011;14402;48.178;11.566;2022-09-27T00:47:07;1.4;;;1.0;;
26824;SDS011;14402;48.178;11.566;2022-09-27T00:47:38;1.4;;;1.0;;
26824;SDS011;14402;48.178;11.566;2022-09-27T00:48:06;1.8;;;0.9;;
26824;SDS011;14402;48.178;11.566;2022-09-27T00:48:36;2.3;;;0.9;;
26824;SDS011;14402;48.178;11.566;2022-09-27T00:49:09;2.3;;;0.9;;
26824;SDS011;14402;48.178;11.566;2022-09-27T00:49:37;2.3;;;0.9;;
26824;SDS011;14402;48.178;11.566;2022-09-27T00:50:08;2.2;;;1.0;;
26824;SDS011;14402;48.178;11.566;2022-09-27T00:50:36;2.2;;;1.2;;
26824;SDS011;14402;48.178;11.566;2022-09-27T00:51:06;2.2;;;1.2;;
26824;SDS011;14402;48.178;11.566;2022-09-27T00:51:37;2.2;;;1.2;;
26824;SDS011;14402;48.178;11.566;2022-09-27T00:52:08;2.1;;;1.1;;
26824;SDS011;14402;48.178;11.566;2022-09-27T00:52:38;2.0;;;1.0;;
26824;SDS011;14402;48.178;11.566;2022-09-27T00:53:09;2.0;;;1.0;;
26824;SDS011;14402;48.178;11.566;2022-09-27T00:53:38;2.0;;;1.0;;
26824;SDS011;14402;48.178;11.566;2022-09-27T00:54:07;1.8;;;0.9;;
26824;SDS011;14402;48.178;11.566;2022-09-27T00:54:37;1.6;;;0.9;;
26824;SDS011;14402;48.178;11.566;2022-09-27T00:55:08;1.6;;;0.9;;
26824;SDS011;14402;48.178;11.566;2022-09-27T00:55:38;1.6;;;0.9;;
26824;SDS011;14402;48.178;11.566;2022-09-27T00:56:08;2.2;;;0.9;;
26824;SDS011;14402;48.178;11.566;2022-09-27T00:56:37;2.7;;;0.9;;
26824;SDS011;14402;48.178;11.566;2022-09-27T00:57:07;2.7;;;0.9;;
26824;SDS011;14402;48.178;11.566;2022-09-27T00:57:37;2.7;;;0.9;;
26824;SDS011;14402;48.178;11.566;2022-09-27T00:58:07;2.2;;;1.0;;
26824;SDS011;14402;48.178;11.566;2022-09-27T00:58:38;1.6;;;1.1;;
26824;SDS011;14402;48.178;11.566;2022-09-27T00:59:10;1.6;;;1.1;;
26824;SDS011;14402;48.178;11.566;2022-09-27T00:59:38;1.6;;;1.1;;
26824;SDS011;14402;48.178;11.566;2022-09-27T01:00:08;1.7;;;1.0;;
26824;SDS011;14402;48.178;11.566;2022-09-27T01:00:39;1.7;;;0.9;;
26824;SDS011;14402;48.178;11.566;2022-09-27T01:01:08;1.7;;;0.9;;
26824;SDS011;14402;48.178;11.566;2022-09-27T01:01:38;1.7;;;0.9;;
26824;SDS011;14402;48.178;11.566;2022-09-27T01:02:08;1.9;;;0.9;;
26824;SDS011;14402;48.178;11.566;2022-09-27T01:02:39;2.1;;;0.9;;
26824;SDS011;14402;48.178;11.566;2022-09-27T01:03:08;2.1;;;0.9;;
26824;SDS011;14402;48.178;11.566;2022-09-27T01:03:39;2.1;;;0.9;;
26824;SDS011;14402;48.178;11.566;2022-09-27T01:04:09;2.3;;;0.9;;
26824;SDS011;14402;48.178;11.566;2022-09-27T01:04:39;2.5;;;1.0;;
26824;SDS011;14402;48.178;11.566;2022-09-27T01:05:09;2.5;;;1.0;;
26824;SDS011;14402;48.178;11.566;2022-09-27T01:05:39;2.5;;;1.0;;
26824;SDS011;14402;48.178;11.566;2022-09-27T01:06:09;2.2;;;1.0;;
26824;SDS011;14402;48.178;11.566;2022-09-27T01:06:39;1.8;;;1.0;;
26824;SDS011;14402;48.178;11.566;2022-09-27T01:07:09;1.8;;;1.0;;
26824;SDS011;14402;48.178;11.566;2022-09-27T01:07:39;1.8;;;1.0;;
26824;SDS011;14402;48.178;11.566;2022-09-27T01:08:09;2.0;;;0.9;;
26824;SDS011;14402;48.178;11.566;2022-09-27T01:08:39;2.2;;;0.9;;
26824;SDS011;14402;48.178;11.566;2022-09-27T01:09:09;2.2;;;0.9;;
26824;SDS011;14402;48.178;11.566;2022-09-27T01:09:39;2.2;;;0.9;;
26824;SDS011;14402;48.178;11.566;2022-09-27T01:10:10;1.9;;;0.9;;
26824;SDS011;14402;48.178;11.566;2022-09-27T01:10:42;1.6;;;1.0;;
26824;SDS011;14402;48.178;11.566;2022-09-27T01:11:13;1.6;;;1.0;;
26824;SDS011;14402;48.178;11.566;2022-09-27T01:11:41;1.6;;;1.0;;
26824;SDS011;14402;48.178;11.566;2022-09-27T01:12:12;1.4;;;1.0;;
26824;SDS011;14402;48.178;11.566;2022-09-27T01:12:42;1.2;;;1.0;;
26824;SDS011;14402;48.178;11.566;2022-09-27T01:13:12;1.2;;;1.0;;
26824;SDS011;14402;48.178;11.566;2022-09-27T01:13:42;1.2;;;1.0;;
26824;SDS011;14402;48.178;11.566;2022-09-27T01:14:16;1.4;;;1.0;;
26824;SDS011;14402;48.178;11.566;2022-09-27T01:14:44;1.6;;;1.0;;
26824;SDS011;14402;48.178;11.566;2022-09-27T01:15:12;1.6;;;1.0;;
26824;SDS011;14402;48.178;11.566;2022-09-27T01:15:42;1.6;;;1.0;;
26824;SDS011;14402;48.178;11.566;2022-09-27T01:16:11;1.8;;;1.0;;
26824;SDS011;14402;48.178;11.566;2022-09-27T01:16:43;2.1;;;1.1;;
26824;SDS011;14402;48.178;11.566;2022-09-27T01:17:16;2.1;;;1.1;;
26824;SDS011;14402;48.178;11.566;2022-09-27T01:17:43;2.1;;;1.1;;
26824;SDS011;14402;48.178;11.566;2022-09-27T01:18:16;1.9;;;1.0;;
26824;SDS011;14402;48.178;11.566;2022-09-27T01:18:43;1.7;;;0.9;;
26824;SDS011;14402;48.178;11.566;2022-09-27T01:19:14;1.7;;;0.9;;
26824;SDS011;14402;48.178;11.566;2022-09-27T01:19:49;1.7;;;0.9;;
26824;SDS011;14402;48.178;11.566;2022-09-27T01:20:27;2.1;;;1.1;;
26824;SDS011;14402;48.178;11.566;2022-09-27T01:20:49;2.4;;;1.4;;
26824;SDS011;14402;48.178;11.566;2022-09-27T01:21:18;2.4;;;1.4;;
26824;SDS011;14402;48.178;11.566;2022-09-27T01:21:44;2.4;;;1.4;;
26824;SDS011;14402;48.178;11.566;2022-09-27T01:22:12;2.6;;;1.2;;
26824;SDS011;14402;48.178;11.566;2022-09-27T01:22:43;2.7;;;1.0;;
26824;SDS011;14402;48.178;11.566;2022-09-27T01:23:19;2.7;;;1.0;;
26824;SDS011;14402;48.178;11.566;2022-09-27T01:23:46;2.7;;;1.0;;
26824;SDS011;14402;48.178;11.566;2022-09-27T01:24:18;2.0;;;1.0;;
26824;SDS011;14402;48.178;11.566;2022-09-27T01:24:52;1.4;;;1.0;;
26824;SDS011;14402;48.178;11.566;2022-09-27T01:25:19;1.4;;;1.0;;
26824;SDS011;14402;48.178;11.566;2022-09-27T01:25:46;1.4;;;1.0;;
26824;SDS011;14402;48.178;11.566;2022-09-27T01:26:14;2.3;;;1.0;;
26824;SDS011;14402;48.178;11.566;2022-09-27T01:26:48;3.2;;;1.1;;
26824;SDS011;14402;48.178;11.566;2022-09-27T01:27:27;3.2;;;1.1;;
26824;SDS011;14402;48.178;11.566;2022-09-27T01:28:50;3.2;;;1.1;;
26824;SDS011;14402;48.178;11.566;2022-09-27T01:28:55;3.3;;;1.0;;
26824;SDS011;14402;48.178;11.566;2022-09-27T01:28:58;3.5;;;1.0;;
26824;SDS011;14402;48.178;11.566;2022-09-27T01:29:14;3.5;;;1.0;;
26824;SDS011;14402;48.178;11.566;2022-09-27T01:29:46;3.5;;;1.0;;
26824;SDS011;14402;48.178;11.566;2022-09-27T01:30:15;2.8;;;1.0;;
26824;SDS011;14402;48.178;11.566;2022-09-27T01:30:44;2.0;;;1.0;;
26824;SDS011;14402;48.178;11.566;2022-09-27T01:31:15;2.0;;;1.0;;
26824;SDS011;14402;48.178;11.566;2022-09-27T01:31:45;2.0;;;1.0;;
26824;SDS011;14402;48.178;11.566;2022-09-27T01:32:14;1.8;;;0.9;;
26824;SDS011;14402;48.178;11.566;2022-09-27T01:32:45;1.6;;;0.8;;
26824;SDS011;14402;48.178;11.566;2022-09-27T01:33:17;1.6;;;0.8;;
26824;SDS011;14402;48.178;11.566;2022-09-27T01:33:44;1.6;;;0.8;;
26824;SDS011;14402;48.178;11.566;2022-09-27T01:34:17;1.8;;;1.0;;
26824;SDS011;14402;48.178;11.566;2022-09-27T01:34:45;1.9;;;1.1;;
26824;SDS011;14402;48.178;11.566;2022-09-27T01:35:15;1.9;;;1.1;;
26824;SDS011;14402;48.178;11.566;2022-09-27T01:35:48;1.9;;;1.1;;
26824;SDS011;14402;48.178;11.566;2022-09-27T01:36:16;1.8;;;1.0;;
26824;SDS011;14402;48.178;11.566;2022-09-27T01:36:46;1.7;;;0.9;;
26824;SDS011;14402;48.178;11.566;2022-09-27T01:37:15;1.7;;;0.9;;
26824;SDS011;14402;48.178;11.566;2022-09-27T01:37:46;1.7;;;0.9;;
26824;SDS011;14402;48.178;11.566;2022-09-27T01:38:16;1.8;;;0.9;;
26824;SDS011;14402;48.178;11.566;2022-09-27T01:38:46;1.8;;;0.9;;
26824;SDS011;14402;48.178;11.566;2022-09-27T01:39:19;1.8;;;0.9;;
26824;SDS011;14402;48.178;11.566;2022-09-27T01:39:46;1.8;;;0.9;;
26824;SDS011;14402;48.178;11.566;2022-09-27T01:40:16;1.8;;;0.9;;
26824;SDS011;14402;48.178;11.566;2022-09-27T01:40:48;1.8;;;1.0;;
26824;SDS011;14402;48.178;11.566;2022-09-27T01:41:18;1.8;;;1.0;;
26824;SDS011;14402;48.178;11.566;2022-09-27T01:41:46;1.8;;;1.0;;
26824;SDS011;14402;48.178;11.566;2022-09-27T01:42:18;1.9;;;1.0;;
26824;SDS011;14402;48.178;11.566;2022-09-27T01:42:46;2.0;;;1.1;;
26824;SDS011;14402;48.178;11.566;2022-09-27T01:43:16;2.0;;;1.1;;
26824;SDS011;14402;48.178;11.566;2022-09-27T01:43:46;2.0;;;1.1;;
26824;SDS011;14402;48.178;11.566;2022-09-27T01:44:19;2.2;;;1.1;;
26824;SDS011;14402;48.178;11.566;2022-09-27T01:44:46;2.3;;;1.1;;
26824;SDS011;14402;48.178;11.566;2022-09-27T01:45:17;2.3;;;1.1;;
26824;SDS011;14402;48.178;11.566;2022-09-27T01:45:47;2.3;;;1.1;;
26824;SDS011;14402;48.178;11.566;2022-09-27T01:46:16;2.0;;;1.1;;
26824;SDS011;14402;48.178;11.566;2022-09-27T01:46:46;1.6;;;1.1;;
26824;SDS011;14402;48.178;11.566;2022-09-27T01:47:16;1.6;;;1.1;;
26824;SDS011;14402;48.178;11.566;2022-09-27T01:47:48;1.6;;;1.1;;
26824;SDS011;14402;48.178;11.566;2022-09-27T01:48:17;1.5;;;1.0;;
26824;SDS011;14402;48.178;11.566;2022-09-27T01:48:47;1.3;;;0.9;;
26824;SDS011;14402;48.178;11.566;2022-09-27T01:49:17;1.3;;;0.9;;
26824;SDS011;14402;48.178;11.566;2022-09-27T01:49:47;1.3;;;0.9;;
26824;SDS011;14402;48.178;11.566;2022-09-27T01:50:17;1.2;;;0.9;;
26824;SDS011;14402;48.178;11.566;2022-09-27T01:50:47;1.2;;;0.8;;
26824;SDS011;14402;48.178;11.566;2022-09-27T01:51:17;1.2;;;0.8;;
26824;SDS011;14402;48.178;11.566;2022-09-27T01:51:47;1.2;;;0.8;;
26824;SDS011;14402;48.178;11.566;2022-09-27T01:52:17;1.6;;;0.9;;
26824;SDS011;14402;48.178;11.566;2022-09-27T01:52:48;2.1;;;1.0;;
26824;SDS011;14402;48.178;11.566;2022-09-27T01:53:18;2.1;;;1.0;;
26824;SDS011;14402;48.178;11.566;2022-09-27T01:53:47;2.1;;;1.0;;
26824;SDS011;14402;48.178;11.566;2022-09-27T01:54:18;1.6;;;0.9;;
26824;SDS011;14402;48.178;11.566;2022-09-27T01:54:49;1.1;;;0.9;;
26824;SDS011;14402;48.178;11.566;2022-09-27T01:55:18;1.1;;;0.9;;
26824;SDS011;14402;48.178;11.566;2022-09-27T01:55:48;1.1;;;0.9;;
26824;SDS011;14402;48.178;11.566;2022-09-27T01:56:18;1.2;;;0.9;;
26824;SDS011;14402;48.178;11.566;2022-09-27T01:56:48;1.3;;;0.9;;
26824;SDS011;14402;48.178;11.566;2022-09-27T01:57:18;1.3;;;0.9;;
26824;SDS011;14402;48.178;11.566;2022-09-27T01:57:48;1.3;;;0.9;;
26824;SDS011;14402;48.178;11.566;2022-09-27T01:58:19;1.3;;;1.0;;
26824;SDS011;14402;48.178;11.566;2022-09-27T01:58:48;1.4;;;1.2;;
26824;SDS011;14402;48.178;11.566;2022-09-27T01:59:19;1.4;;;1.2;;
26824;SDS011;14402;48.178;11.566;2022-09-27T01:59:49;1.4;;;1.2;;
26824;SDS011;14402;48.178;11.566;2022-09-27T02:00:18;1.2;;;1.0;;
26824;SDS011;14402;48.178;11.566;2022-09-27T02:00:49;1.1;;;0.9;;
26824;SDS011;14402;48.178;11.566;2022-09-27T02:01:19;1.1;;;0.9;;
26824;SDS011;14402;48.178;11.566;2022-09-27T02:01:49;1.1;;;0.9;;
26824;SDS011;14402;48.178;11.566;2022-09-27T02:02:19;1.4;;;0.9;;
26824;SDS011;14402;48.178;11.566;2022-09-27T02:02:49;1.7;;;1.0;;
26824;SDS011;14402;48.178;11.566;2022-09-27T02:03:19;1.7;;;1.0;;
26824;SDS011;14402;48.178;11.566;2022-09-27T02:03:49;1.7;;;1.0;;
26824;SDS011;14402;48.178;11.566;2022-09-27T02:04:20;1.6;;;1.0;;
26824;SDS011;14402;48.178;11.566;2022-09-27T02:04:49;1.5;;;1.0;;
26824;SDS011;14402;48.178;11.566;2022-09-27T02:05:19;1.5;;;1.0;;
26824;SDS011;14402;48.178;11.566;2022-09-27T02:05:50;1.5;;;1.0;;
26824;SDS011;14402;48.178;11.566;2022-09-27T02:06:20;1.5;;;1.0;;
26824;SDS011;14402;48.178;11.566;2022-09-27T02:06:50;1.4;;;1.0;;
26824;SDS011;14402;48.178;11.566;2022-09-27T02:07:21;1.4;;;1.0;;
26824;SDS011;14402;48.178;11.566;2022-09-27T02:07:50;1.4;;;1.0;;
26824;SDS011;14402;48.178;11.566;2022-09-27T02:08:20;1.5;;;1.0;;
26824;SDS011;14402;48.178;11.566;2022-09-27T02:08:50;1.6;;;1.1;;
26824;SDS011;14402;48.178;11.566;2022-09-27T02:09:21;1.6;;;1.1;;
26824;SDS011;14402;48.178;11.566;2022-09-27T02:09:51;1.6;;;1.1;;
26824;SDS011;14402;48.178;11.566;2022-09-27T02:10:21;1.4;;;1.0;;
26824;SDS011;14402;48.178;11.566;2022-09-27T02:10:50;1.2;;;0.9;;
26824;SDS011;14402;48.178;11.566;2022-09-27T02:11:20;1.2;;;0.9;;
26824;SDS011;14402;48.178;11.566;2022-09-27T02:11:51;1.2;;;0.9;;
26824;SDS011;14402;48.178;11.566;2022-09-27T02:12:21;1.5;;;1.0;;
26824;SDS011;14402;48.178;11.566;2022-09-27T02:12:51;1.9;;;1.1;;
26824;SDS011;14402;48.178;11.566;2022-09-27T02:13:21;1.9;;;1.1;;
26824;SDS011;14402;48.178;11.566;2022-09-27T02:13:52;1.9;;;1.1;;
26824;SDS011;14402;48.178;11.566;2022-09-27T02:14:21;2.4;;;1.1;;
26824;SDS011;14402;48.178;11.566;2022-09-27T02:14:52;2.9;;;1.1;;
26824;SDS011;14402;48.178;11.566;2022-09-27T02:15:21;2.9;;;1.1;;
26824;SDS011;14402;48.178;11.566;2022-09-27T02:15:56;2.9;;;1.1;;
26824;SDS011;14402;48.178;11.566;2022-09-27T02:16:22;2.4;;;1.0;;
26824;SDS011;14402;48.178;11.566;2022-09-27T02:16:51;1.9;;;1.0;;
26824;SDS011;14402;48.178;11.566;2022-09-27T02:17:23;1.9;;;1.0;;
26824;SDS011;14402;48.178;11.566;2022-09-27T02:17:52;1.9;;;1.0;;
26824;SDS011;14402;48.178;11.566;2022-09-27T02:18:22;1.5;;;1.0;;
26824;SDS011;14402;48.178;11.566;2022-09-27T02:18:54;1.2;;;1.1;;
26824;SDS011;14402;48.178;11.566;2022-09-27T02:19:25;1.2;;;1.1;;
26824;SDS011;14402;48.178;11.566;2022-09-27T02:19:53;1.2;;;1.1;;
26824;SDS011;14402;48.178;11.566;2022-09-27T02:20:24;1.6;;;1.0;;
26824;SDS011;14402;48.178;11.566;2022-09-27T02:20:54;2.1;;;0.8;;
26824;SDS011;14402;48.178;11.566;2022-09-27T02:21:23;2.1;;;0.8;;
26824;SDS011;14402;48.178;11.566;2022-09-27T02:21:54;2.1;;;0.8;;
26824;SDS011;14402;48.178;11.566;2022-09-27T02:22:24;2.1;;;1.0;;
26824;SDS011;14402;48.178;11.566;2022-09-27T02:22:53;2.1;;;1.1;;
26824;SDS011;14402;48.178;11.566;2022-09-27T02:23:24;2.1;;;1.1;;
26824;SDS011;14402;48.178;11.566;2022-09-27T02:23:53;2.1;;;1.1;;
26824;SDS011;14402;48.178;11.566;2022-09-27T02:24:23;2.2;;;1.0;;
26824;SDS011;14402;48.178;11.566;2022-09-27T02:24:53;2.4;;;0.9;;
26824;SDS011;14402;48.178;11.566;2022-09-27T02:25:25;2.4;;;0.9;;
26824;SDS011;14402;48.178;11.566;2022-09-27T02:25:53;2.4;;;0.9;;
26824;SDS011;14402;48.178;11.566;2022-09-27T02:26:23;1.9;;;0.9;;
26824;SDS011;14402;48.178;11.566;2022-09-27T02:26:54;1.3;;;0.9;;
26824;SDS011;14402;48.178;11.566;2022-09-27T02:27:23;1.3;;;0.9;;
26824;SDS011;14402;48.178;11.566;2022-09-27T02:27:54;1.3;;;0.9;;
26824;SDS011;14402;48.178;11.566;2022-09-27T02:28:25;1.6;;;1.0;;
26824;SDS011;14402;48.178;11.566;2022-09-27T02:28:55;2.0;;;1.1;;
26824;SDS011;14402;48.178;11.566;2022-09-27T02:29:24;2.0;;;1.1;;
26824;SDS011;14402;48.178;11.566;2022-09-27T02:29:55;2.0;;;1.1;;
26824;SDS011;14402;48.178;11.566;2022-09-27T02:30:23;1.9;;;1.2;;
26824;SDS011;14402;48.178;11.566;2022-09-27T02:30:53;1.8;;;1.2;;
26824;SDS011;14402;48.178;11.566;2022-09-27T02:31:23;1.8;;;1.2;;
26824;SDS011;14402;48.178;11.566;2022-09-27T02:31:54;1.8;;;1.2;;
26824;SDS011;14402;48.178;11.566;2022-09-27T02:32:23;2.7;;;1.2;;
26824;SDS011;14402;48.178;11.566;2022-09-27T02:32:54;3.5;;;1.1;;
26824;SDS011;14402;48.178;11.566;2022-09-27T02:33:25;3.5;;;1.1;;
26824;SDS011;14402;48.178;11.566;2022-09-27T02:33:54;3.5;;;1.1;;
26824;SDS011;14402;48.178;11.566;2022-09-27T02:34:24;2.7;;;1.0;;
26824;SDS011;14402;48.178;11.566;2022-09-27T02:34:54;1.9;;;1.0;;
26824;SDS011;14402;48.178;11.566;2022-09-27T02:35:26;1.9;;;1.0;;
26824;SDS011;14402;48.178;11.566;2022-09-27T02:35:54;1.9;;;1.0;;
26824;SDS011;14402;48.178;11.566;2022-09-27T02:36:24;2.8;;;1.0;;
26824;SDS011;14402;48.178;11.566;2022-09-27T02:36:54;3.8;;;1.0;;
26824;SDS011;14402;48.178;11.566;2022-09-27T02:37:24;3.8;;;1.0;;
26824;SDS011;14402;48.178;11.566;2022-09-27T02:37:55;3.8;;;1.0;;
26824;SDS011;14402;48.178;11.566;2022-09-27T02:38:24;2.9;;;1.1;;
26824;SDS011;14402;48.178;11.566;2022-09-27T02:38:55;2.0;;;1.2;;
26824;SDS011;14402;48.178;11.566;2022-09-27T02:39:25;2.0;;;1.2;;
26824;SDS011;14402;48.178;11.566;2022-09-27T02:39:55;2.0;;;1.2;;
26824;SDS011;14402;48.178;11.566;2022-09-27T02:40:28;1.7;;;1.1;;
26824;SDS011;14402;48.178;11.566;2022-09-27T02:40:55;1.4;;;1.0;;
26824;SDS011;14402;48.178;11.566;2022-09-27T02:41:25;1.4;;;1.0;;
26824;SDS011;14402;48.178;11.566;2022-09-27T02:41:55;1.4;;;1.0;;
26824;SDS011;14402;48.178;11.566;2022-09-27T02:42:25;2.0;;;1.0;;
26824;SDS011;14402;48.178;11.566;2022-09-27T02:42:55;2.6;;;1.1;;
26824;SDS011;14402;48.178;11.566;2022-09-27T02:43:26;2.6;;;1.1;;
26824;SDS011;14402;48.178;11.566;2022-09-27T02:43:56;2.6;;;1.1;;
26824;SDS011;14402;48.178;11.566;2022-09-27T02:44:26;1.8;;;1.0;;
26824;SDS011;14402;48.178;11.566;2022-09-27T02:44:55;1.0;;;0.9;;
26824;SDS011;14402;48.178;11.566;2022-09-27T02:45:26;1.0;;;0.9;;
26824;SDS011;14402;48.178;11.566;2022-09-27T02:46:00;1.0;;;0.9;;
26824;SDS011;14402;48.178;11.566;2022-09-27T02:46:32;1.2;;;1.0;;
26824;SDS011;14402;48.178;11.566;2022-09-27T02:47:02;1.4;;;1.2;;
26824;SDS011;14402;48.178;11.566;2022-09-27T02:47:37;1.4;;;1.2;;
26824;SDS011;14402;48.178;11.566;2022-09-27T02:47:58;1.4;;;1.2;;
26824;SDS011;14402;48.178;11.566;2022-09-27T02:48:27;1.5;;;1.1;;
26824;SDS011;14402;48.178;11.566;2022-09-27T02:48:58;1.7;;;1.0;;
26824;SDS011;14402;48.178;11.566;2022-09-27T02:49:30;1.7;;;1.0;;
26824;SDS011;14402;48.178;11.566;2022-09-27T02:49:59;1.7;;;1.0;;
26824;SDS011;14402;48.178;11.566;2022-09-27T02:50:32;1.7;;;1.1;;
26824;SDS011;14402;48.178;11.566;2022-09-27T02:51:04;1.7;;;1.2;;
26824;SDS011;14402;48.178;11.566;2022-09-27T02:51:30;1.7;;;1.2;;
26824;SDS011;14402;48.178;11.566;2022-09-27T02:51:59;1.7;;;1.2;;
26824;SDS011;14402;48.178;11.566;2022-09-27T02:52:28;1.8;;;1.3;;
26824;SDS011;14402;48.178;11.566;2022-09-27T02:52:58;1.8;;;1.4;;
26824;SDS011;14402;48.178;11.566;2022-09-27T02:53:30;1.8;;;1.4;;
26824;SDS011;14402;48.178;11.566;2022-09-27T02:54:00;1.8;;;1.4;;
26824;SDS011;14402;48.178;11.566;2022-09-27T02:54:29;1.6;;;1.2;;
26824;SDS011;14402;48.178;11.566;2022-09-27T02:54:59;1.4;;;1.1;;
26824;SDS011;14402;48.178;11.566;2022-09-27T02:55:31;1.4;;;1.1;;
26824;SDS011;14402;48.178;11.566;2022-09-27T02:55:59;1.4;;;1.1;;
26824;SDS011;14402;48.178;11.566;2022-09-27T02:56:33;1.7;;;1.2;;
26824;SDS011;14402;48.178;11.566;2022-09-27T02:57:00;2.0;;;1.3;;
26824;SDS011;14402;48.178;11.566;2022-09-27T02:57:29;2.0;;;1.3;;
26824;SDS011;14402;48.178;11.566;2022-09-27T02:58:00;2.0;;;1.3;;
26824;SDS011;14402;48.178;11.566;2022-09-27T02:58:30;4.3;;;3.7;;
26824;SDS011;14402;48.178;11.566;2022-09-27T02:59:00;6.7;;;6.0;;
26824;SDS011;14402;48.178;11.566;2022-09-27T02:59:31;6.7;;;6.0;;
26824;SDS011;14402;48.178;11.566;2022-09-27T03:00:00;6.7;;;6.0;;
26824;SDS011;14402;48.178;11.566;2022-09-27T03:00:29;8.0;;;7.2;;
26824;SDS011;14402;48.178;11.566;2022-09-27T03:01:00;9.3;;;8.4;;
26824;SDS011;14402;48.178;11.566;2022-09-27T03:01:30;9.3;;;8.4;;
26824;SDS011;14402;48.178;11.566;2022-09-27T03:02:01;9.3;;;8.4;;
26824;SDS011;14402;48.178;11.566;2022-09-27T03:02:30;6.1;;;5.0;;
26824;SDS011;14402;48.178;11.566;2022-09-27T03:03:01;2.8;;;1.6;;
26824;SDS011;14402;48.178;11.566;2022-09-27T03:03:30;2.8;;;1.6;;
26824;SDS011;14402;48.178;11.566;2022-09-27T03:03:59;2.8;;;1.6;;